createdAt,value
2022-08-26T00:01:54.623Z,88.78
2022-08-26T00:04:25.471Z,88.83
2022-08-26T00:06:55.557Z,88.78
2022-08-26T00:09:25.387Z,89.05
2022-08-26T00:11:54.257Z,89.11
2022-08-26T00:14:27.035Z,88.95
2022-08-26T00:16:57.817Z,89.05
2022-08-26T00:19:25.509Z,89.21
2022-08-26T00:21:53.179Z,89.06
2022-08-26T00:24:21.668Z,89.10
2022-08-26T00:26:50.483Z,89.13
2022-08-26T00:29:19.803Z,89.34
2022-08-26T00:31:49.549Z,89.38
2022-08-26T00:34:19.422Z,89.40
2022-08-26T00:36:51.818Z,89.23
2022-08-26T00:39:20.969Z,89.20
2022-08-26T00:41:48.704Z,89.07
2022-08-26T00:44:17.532Z,89.02
2022-08-26T00:46:51.044Z,88.94
2022-08-26T00:49:25.880Z,89.01
2022-08-26T00:51:55.532Z,88.95
2022-08-26T00:54:27.421Z,88.82
2022-08-26T00:57:16.307Z,88.77
2022-08-26T00:59:52.925Z,88.58
2022-08-26T01:02:21.736Z,88.54
2022-08-26T01:04:57.066Z,88.34
2022-08-26T01:07:30.295Z,88.38
2022-08-26T01:10:01.807Z,88.20
2022-08-26T01:12:33.809Z,88.20
2022-08-26T01:15:03.055Z,87.85
2022-08-26T01:17:33.777Z,87.63
2022-08-26T01:20:21.681Z,87.44
2022-08-26T01:22:52.368Z,87.40
2022-08-26T01:25:21.588Z,87.47
2022-08-26T01:27:51.392Z,87.24
2022-08-26T01:30:19.988Z,87.19
2022-08-26T01:32:50.032Z,87.30
2022-08-26T01:35:18.786Z,87.26
2022-08-26T01:37:49.872Z,86.96
2022-08-26T01:40:25.561Z,86.80
2022-08-26T01:42:54.681Z,86.81
2022-08-26T01:45:29.866Z,86.88
2022-08-26T01:48:01.789Z,86.74
2022-08-26T01:50:33.326Z,86.63
2022-08-26T01:53:06.067Z,86.56
2022-08-26T01:55:34.499Z,86.54
2022-08-26T01:58:07.894Z,86.47
2022-08-26T02:00:36.509Z,86.11
2022-08-26T02:03:22.987Z,86.21
2022-08-26T02:05:55.178Z,85.89
2022-08-26T02:08:36.910Z,86.07
2022-08-26T02:11:05.328Z,85.82
2022-08-26T02:13:37.372Z,85.87
2022-08-26T02:16:06.043Z,85.58
2022-08-26T02:18:38.811Z,85.48
2022-08-26T02:21:08.357Z,85.53
2022-08-26T02:23:36.003Z,85.18
2022-08-26T02:26:09.965Z,85.11
2022-08-26T02:28:46.494Z,85.13
2022-08-26T02:31:14.548Z,85.53
2022-08-26T02:33:43.033Z,85.62
2022-08-26T02:36:12.163Z,85.67
2022-08-26T02:38:41.262Z,85.84
2022-08-26T02:41:11.201Z,85.94
2022-08-26T02:43:38.809Z,86.09
2022-08-26T02:46:06.552Z,86.27
2022-08-26T02:48:34.533Z,86.37
2022-08-26T02:51:03.788Z,86.48
2022-08-26T02:53:35.467Z,86.49
2022-08-26T02:56:07.154Z,86.61
2022-08-26T02:58:35.329Z,86.44
2022-08-26T03:01:04.978Z,86.48
2022-08-26T03:03:33.560Z,86.48
2022-08-26T03:06:01.480Z,86.41
2022-08-26T03:08:29.166Z,86.17
2022-08-26T03:10:56.863Z,85.94
2022-08-26T03:13:24.444Z,85.70
2022-08-26T03:15:52.133Z,85.67
2022-08-26T03:18:20.496Z,85.63
2022-08-26T03:20:48.416Z,85.44
2022-08-26T03:23:16.537Z,85.61
2022-08-26T03:25:53.025Z,85.53
2022-08-26T03:28:20.665Z,85.45
2022-08-26T03:30:49.064Z,85.32
2022-08-26T03:33:16.930Z,85.28
2022-08-26T03:35:47.149Z,84.99
2022-08-26T03:38:15.309Z,84.98
2022-08-26T03:40:43.598Z,84.86
2022-08-26T03:43:12.381Z,84.57
2022-08-26T03:45:40.970Z,84.51
2022-08-26T03:48:11.328Z,84.39
2022-08-26T03:50:39.784Z,84.23
2022-08-26T03:53:12.838Z,83.92
2022-08-26T03:55:42.170Z,83.90
2022-08-26T03:58:10.961Z,83.74
2022-08-26T04:00:39.359Z,83.46
2022-08-26T04:03:09.978Z,83.46
2022-08-26T04:05:38.146Z,83.37
2022-08-26T04:08:06.920Z,83.25
2022-08-26T04:10:38.301Z,83.11
2022-08-26T04:13:06.413Z,83.10
2022-08-26T04:15:34.295Z,83.03
2022-08-26T04:18:01.895Z,83.17
2022-08-26T04:20:29.590Z,82.76
2022-08-26T04:22:57.244Z,82.82
2022-08-26T04:25:24.896Z,82.51
2022-08-26T04:27:52.559Z,82.54
2022-08-26T04:30:20.408Z,82.35
2022-08-26T04:32:49.434Z,82.29
2022-08-26T04:35:17.227Z,82.40
2022-08-26T04:37:44.834Z,82.23
2022-08-26T04:40:12.537Z,82.28
2022-08-26T04:42:40.280Z,82.42
2022-08-26T04:45:10.183Z,82.54
2022-08-26T04:47:38.436Z,82.38
2022-08-26T04:50:07.691Z,82.17
2022-08-26T04:52:36.505Z,82.15
2022-08-26T04:55:08.617Z,82.05
2022-08-26T04:57:36.724Z,81.59
2022-08-26T05:00:11.993Z,81.48
2022-08-26T05:02:40.780Z,81.34
2022-08-26T05:05:08.833Z,81.21
2022-08-26T05:07:36.497Z,81.19
2022-08-26T05:10:04.692Z,81.01
2022-08-26T05:12:36.766Z,81.03
2022-08-26T05:15:06.774Z,81.17
2022-08-26T05:17:34.453Z,80.75
2022-08-26T05:20:02.218Z,80.90
2022-08-26T05:22:29.910Z,80.73
2022-08-26T05:24:57.591Z,80.58
2022-08-26T05:27:25.247Z,80.54
2022-08-26T05:29:57.162Z,80.52
2022-08-26T05:32:24.856Z,80.06
2022-08-26T05:34:56.971Z,80.06
2022-08-26T05:37:26.326Z,79.95
2022-08-26T05:39:53.988Z,79.74
2022-08-26T05:42:21.932Z,79.87
2022-08-26T05:44:53.995Z,79.61
2022-08-26T05:47:26.147Z,79.58
2022-08-26T05:49:54.538Z,79.48
2022-08-26T05:52:22.180Z,79.37
2022-08-26T05:54:53.544Z,79.20
2022-08-26T05:57:23.157Z,79.29
2022-08-26T05:59:52.221Z,79.21
2022-08-26T06:02:20.491Z,79.30
2022-08-26T06:04:48.213Z,79.21
2022-08-26T06:07:16.877Z,79.26
2022-08-26T06:09:46.256Z,79.07
2022-08-26T06:12:14.111Z,79.16
2022-08-26T06:14:43.398Z,79.09
2022-08-26T06:17:12.256Z,78.59
2022-08-26T06:19:41.342Z,78.53
2022-08-26T06:22:29.137Z,78.69
2022-08-26T06:25:12.788Z,78.59
2022-08-26T06:27:40.411Z,78.47
2022-08-26T06:30:09.853Z,78.31
2022-08-26T06:32:37.555Z,77.88
2022-08-26T06:35:06.229Z,77.78
2022-08-26T06:37:40.308Z,78.16
2022-08-26T06:40:09.670Z,78.42
2022-08-26T06:42:39.602Z,78.34
2022-08-26T06:45:08.997Z,78.23
2022-08-26T06:47:37.003Z,78.31
2022-08-26T06:50:05.349Z,78.04
2022-08-26T06:52:33.067Z,77.73
2022-08-26T06:55:02.986Z,77.41
2022-08-26T06:57:32.762Z,77.35
2022-08-26T07:00:12.913Z,77.05
2022-08-26T07:02:41.835Z,76.83
2022-08-26T07:05:15.077Z,76.88
2022-08-26T07:07:42.749Z,76.67
2022-08-26T07:10:10.743Z,76.45
2022-08-26T07:12:38.813Z,76.51
2022-08-26T07:15:06.838Z,76.17
2022-08-26T07:17:35.951Z,76.14
2022-08-26T07:20:07.731Z,76.01
2022-08-26T07:22:37.056Z,75.82
2022-08-26T07:25:07.969Z,75.87
2022-08-26T07:27:37.919Z,75.83
2022-08-26T07:30:07.768Z,75.93
2022-08-26T07:32:37.408Z,75.63
2022-08-26T07:35:06.301Z,75.59
2022-08-26T07:37:39.079Z,75.47
2022-08-26T07:40:07.640Z,75.33
2022-08-26T07:42:37.176Z,74.73
2022-08-26T07:45:05.857Z,74.44
2022-08-26T07:47:33.520Z,74.60
2022-08-26T07:50:01.297Z,74.46
2022-08-26T07:52:30.695Z,74.19
2022-08-26T07:55:01.324Z,73.88
2022-08-26T07:57:30.425Z,73.42
2022-08-26T07:59:59.522Z,73.52
2022-08-26T08:02:29.101Z,73.31
2022-08-26T08:04:58.349Z,72.96
2022-08-26T08:07:44.177Z,72.95
2022-08-26T08:10:19.222Z,72.74
2022-08-26T08:12:49.960Z,72.44
2022-08-26T08:15:20.094Z,72.21
2022-08-26T08:17:50.533Z,71.88
2022-08-26T08:20:22.053Z,72.02
2022-08-26T08:22:51.970Z,71.83
2022-08-26T08:25:21.685Z,71.97
2022-08-26T08:27:49.671Z,71.73
2022-08-26T08:30:20.940Z,71.54
2022-08-26T08:32:52.278Z,71.45
2022-08-26T08:35:23.886Z,71.49
2022-08-26T08:37:54.651Z,71.04
2022-08-26T08:40:26.009Z,71.10
2022-08-26T08:43:13.418Z,70.86
2022-08-26T08:45:53.624Z,70.32
2022-08-26T08:48:27.758Z,70.55
2022-08-26T08:50:58.839Z,70.15
2022-08-26T08:53:41.542Z,69.94
2022-08-26T08:56:46.180Z,70.08
2022-08-26T08:59:35.190Z,70.03
2022-08-26T09:02:55.819Z,70.11
2022-08-26T09:05:45.448Z,69.83
2022-08-26T09:08:27.357Z,69.77
2022-08-26T09:11:01.851Z,69.74
2022-08-26T09:13:31.799Z,69.51
2022-08-26T09:16:31.973Z,69.27
2022-08-26T09:19:31.570Z,69.07
2022-08-26T09:22:02.167Z,68.96
2022-08-26T09:24:41.764Z,68.83
2022-08-26T09:27:40.377Z,68.72
2022-08-26T09:30:30.290Z,68.36
2022-08-26T09:33:14.710Z,68.27
2022-08-26T09:35:48.826Z,67.66
2022-08-26T09:38:27.885Z,68.27
2022-08-26T09:41:02.752Z,67.91
2022-08-26T09:43:33.055Z,67.94
2022-08-26T09:46:24.530Z,67.87
2022-08-26T09:48:53.276Z,67.21
2022-08-26T09:51:23.149Z,67.15
2022-08-26T09:53:54.831Z,67.21
2022-08-26T09:56:25.798Z,66.56
2022-08-26T09:58:56.569Z,66.68
2022-08-26T10:01:51.233Z,66.55
2022-08-26T10:04:28.033Z,66.55
2022-08-26T10:07:00.869Z,65.71
2022-08-26T10:09:36.069Z,65.19
2022-08-26T10:12:13.224Z,65.59
2022-08-26T10:14:50.177Z,65.60
2022-08-26T10:17:26.559Z,64.95
2022-08-26T10:20:03.759Z,64.44
2022-08-26T10:22:46.332Z,64.27
2022-08-26T10:25:20.164Z,64.21
2022-08-26T10:28:06.752Z,64.22
2022-08-26T10:30:42.958Z,63.93
2022-08-26T10:33:18.374Z,63.24
2022-08-26T10:35:58.707Z,62.84
2022-08-26T10:38:34.172Z,62.62
2022-08-26T10:41:11.268Z,62.56
2022-08-26T10:43:51.513Z,62.80
2022-08-26T10:46:27.462Z,62.70
2022-08-26T10:49:06.500Z,62.60
2022-08-26T10:51:42.068Z,62.21
2022-08-26T10:54:26.010Z,61.68
2022-08-26T10:57:12.700Z,61.97
2022-08-26T11:00:24.599Z,61.02
2022-08-26T11:03:22.110Z,60.63
2022-08-26T11:06:25.598Z,60.88
2022-08-26T11:08:59.670Z,60.75
2022-08-26T11:11:45.469Z,60.39
2022-08-26T11:14:28.652Z,59.91
2022-08-26T11:16:58.876Z,60.03
2022-08-26T11:20:01.568Z,59.88
2022-08-26T11:22:37.961Z,58.71
2022-08-26T11:25:20.141Z,59.03
2022-08-26T11:27:47.693Z,58.89
2022-08-26T11:30:18.560Z,58.72
2022-08-26T11:32:58.205Z,58.32
2022-08-26T11:35:46.164Z,57.89
2022-08-26T11:38:27.165Z,57.40
2022-08-26T11:40:59.822Z,57.29
2022-08-26T11:43:32.681Z,55.93
2022-08-26T11:46:10.674Z,55.52
2022-08-26T11:48:43.433Z,55.28
2022-08-26T11:51:27.007Z,55.00
2022-08-26T11:54:15.817Z,54.74
2022-08-26T11:56:47.732Z,54.09
2022-08-26T11:59:23.907Z,53.40
2022-08-26T12:01:54.477Z,53.94
2022-08-26T12:04:28.600Z,53.19
2022-08-26T12:06:58.521Z,52.41
2022-08-26T12:09:34.288Z,51.96
2022-08-26T12:12:22.003Z,51.56
2022-08-26T12:15:10.459Z,50.27
2022-08-26T12:17:39.471Z,49.71
2022-08-26T12:20:17.942Z,49.16
2022-08-26T12:22:48.209Z,48.69
2022-08-26T12:25:23.946Z,48.51
2022-08-26T12:27:54.000Z,48.15
2022-08-26T12:30:24.495Z,47.59
2022-08-26T12:33:22.108Z,47.11
2022-08-26T12:35:56.302Z,46.71
2022-08-26T12:38:26.670Z,46.12
2022-08-26T12:40:56.849Z,46.18
2022-08-26T12:43:43.131Z,46.35
2022-08-26T12:46:18.482Z,45.81
2022-08-26T12:48:49.592Z,45.02
2022-08-26T12:51:27.023Z,44.30
2022-08-26T12:53:55.390Z,43.85
2022-08-26T12:56:33.908Z,43.76
2022-08-26T12:59:11.163Z,43.37
2022-08-26T13:01:44.949Z,42.65
2022-08-26T13:04:46.074Z,42.55
2022-08-26T13:07:20.470Z,41.74
2022-08-26T13:09:50.420Z,41.72
2022-08-26T13:12:37.157Z,41.34
2022-08-26T13:15:06.931Z,40.33
2022-08-26T13:17:35.915Z,40.66
2022-08-26T13:20:04.537Z,40.20
2022-08-26T13:22:33.782Z,39.42
2022-08-26T13:25:01.747Z,39.19
2022-08-26T13:27:29.561Z,38.70
2022-08-26T13:29:58.925Z,38.54
2022-08-26T13:32:27.818Z,38.51
2022-08-26T13:34:57.780Z,37.89
2022-08-26T13:37:34.155Z,37.71
2022-08-26T13:40:07.613Z,37.39
2022-08-26T13:42:35.556Z,36.82
2022-08-26T13:45:03.781Z,36.59
2022-08-26T13:47:31.438Z,36.34
2022-08-26T13:49:59.124Z,36.47
2022-08-26T13:52:30.393Z,36.17
2022-08-26T13:55:00.504Z,35.42
2022-08-26T13:57:30.276Z,35.39
2022-08-26T13:59:59.334Z,35.57
2022-08-26T14:02:28.217Z,35.23
2022-08-26T14:04:56.404Z,34.82
2022-08-26T14:07:24.417Z,34.21
2022-08-26T14:09:52.614Z,34.86
2022-08-26T14:12:20.355Z,34.28
2022-08-26T14:14:48.137Z,33.72
2022-08-26T14:17:20.885Z,33.58
2022-08-26T14:19:50.269Z,33.09
2022-08-26T14:22:21.021Z,32.94
2022-08-26T14:24:49.165Z,32.27
2022-08-26T14:27:16.949Z,32.46
2022-08-26T14:29:44.579Z,31.72
2022-08-26T14:32:21.034Z,31.80
2022-08-26T14:34:50.163Z,32.01
2022-08-26T14:37:19.536Z,32.40
2022-08-26T14:39:47.767Z,31.88
2022-08-26T14:42:20.496Z,31.65
2022-08-26T14:44:55.350Z,30.86
2022-08-26T14:47:23.021Z,30.98
2022-08-26T14:49:50.739Z,30.78
2022-08-26T14:52:18.381Z,30.78
2022-08-26T14:54:46.006Z,30.68
2022-08-26T14:57:14.970Z,29.98
2022-08-26T14:59:50.202Z,30.03
2022-08-26T15:02:33.362Z,29.99
2022-08-26T15:05:02.740Z,30.07
2022-08-26T15:07:31.016Z,29.62
2022-08-26T15:09:59.241Z,29.64
2022-08-26T15:12:27.686Z,29.69
2022-08-26T15:14:55.516Z,29.55
2022-08-26T15:17:23.382Z,29.20
2022-08-26T15:19:51.588Z,29.12
2022-08-26T15:22:19.278Z,29.36
2022-08-26T15:24:47.007Z,29.39
2022-08-26T15:27:19.639Z,29.47
2022-08-26T15:29:47.617Z,29.59
2022-08-26T15:32:15.663Z,29.67
2022-08-26T15:34:43.812Z,29.88
2022-08-26T15:37:11.913Z,30.06
2022-08-26T15:39:39.870Z,30.20
2022-08-26T15:42:07.573Z,30.24
2022-08-26T15:44:36.605Z,30.40
2022-08-26T15:47:04.432Z,30.62
2022-08-26T15:49:32.857Z,30.65
2022-08-26T15:52:02.762Z,31.11
2022-08-26T15:54:33.597Z,31.46
2022-08-26T15:57:02.483Z,31.36
2022-08-26T15:59:33.514Z,31.24
2022-08-26T16:02:01.782Z,31.68
2022-08-26T16:04:29.625Z,31.62
2022-08-26T16:06:57.380Z,31.89
2022-08-26T16:09:27.056Z,32.39
2022-08-26T16:11:58.423Z,32.05
2022-08-26T16:14:26.989Z,31.96
2022-08-26T16:16:54.799Z,32.26
2022-08-26T16:19:22.589Z,32.42
2022-08-26T16:21:51.401Z,32.23
2022-08-26T16:24:24.789Z,32.36
2022-08-26T16:26:54.589Z,32.59
2022-08-26T16:29:22.248Z,32.59
2022-08-26T16:31:53.111Z,32.99
2022-08-26T16:34:21.777Z,33.09
2022-08-26T16:36:49.553Z,33.05
2022-08-26T16:39:17.274Z,33.22
2022-08-26T16:41:44.957Z,33.59
2022-08-26T16:44:12.691Z,33.64
2022-08-26T16:46:41.207Z,34.00
2022-08-26T16:49:08.996Z,34.17
2022-08-26T16:51:38.057Z,34.79
2022-08-26T16:54:08.532Z,35.66
2022-08-26T16:56:37.170Z,36.40
2022-08-26T16:59:07.014Z,36.34
2022-08-26T17:01:34.931Z,35.86
2022-08-26T17:04:02.848Z,36.17
2022-08-26T17:06:30.791Z,36.44
2022-08-26T17:08:58.912Z,36.63
2022-08-26T17:11:26.613Z,37.52
2022-08-26T17:13:54.270Z,37.01
2022-08-26T17:16:26.418Z,37.52
2022-08-26T17:18:57.190Z,37.33
2022-08-26T17:21:26.431Z,37.29
2022-08-26T17:23:55.063Z,37.29
2022-08-26T17:26:22.894Z,37.34
2022-08-26T17:28:51.369Z,37.79
2022-08-26T17:31:20.276Z,37.57
2022-08-26T17:33:53.926Z,38.04
2022-08-26T17:36:27.794Z,38.31
2022-08-26T17:38:57.690Z,38.55
2022-08-26T17:41:26.388Z,39.38
2022-08-26T17:43:54.094Z,39.96
2022-08-26T17:46:21.962Z,40.30
2022-08-26T17:48:49.751Z,39.34
2022-08-26T17:51:19.462Z,40.03
2022-08-26T17:53:48.623Z,40.25
2022-08-26T17:56:19.821Z,40.94
2022-08-26T17:58:47.945Z,41.02
2022-08-26T18:01:21.105Z,41.35
2022-08-26T18:03:49.595Z,41.67
2022-08-26T18:06:17.401Z,41.93
2022-08-26T18:08:45.113Z,42.08
2022-08-26T18:11:17.128Z,42.07
2022-08-26T18:13:46.962Z,42.20
2022-08-26T18:16:17.579Z,42.28
2022-08-26T18:18:47.254Z,42.85
2022-08-26T18:21:17.891Z,42.82
2022-08-26T18:23:46.833Z,43.72
2022-08-26T18:26:33.002Z,43.82
2022-08-26T18:29:01.739Z,44.00
2022-08-26T18:31:30.293Z,44.08
2022-08-26T18:34:02.311Z,45.67
2022-08-26T18:36:33.178Z,45.92
2022-08-26T18:39:02.039Z,46.53
2022-08-26T18:41:32.667Z,46.36
2022-08-26T18:44:00.658Z,46.32
2022-08-26T18:46:28.499Z,46.15
2022-08-26T18:48:57.184Z,45.93
2022-08-26T18:51:29.564Z,45.91
2022-08-26T18:53:58.875Z,45.95
2022-08-26T18:56:27.722Z,46.15
2022-08-26T18:58:55.403Z,46.29
2022-08-26T19:01:27.219Z,46.30
2022-08-26T19:04:00.167Z,46.41
2022-08-26T19:06:32.699Z,46.53
2022-08-26T19:09:01.220Z,46.61
2022-08-26T19:11:31.793Z,46.65
2022-08-26T19:14:06.467Z,46.69
2022-08-26T19:16:35.542Z,46.86
2022-08-26T19:19:04.274Z,46.78
2022-08-26T19:21:33.768Z,46.86
2022-08-26T19:24:04.107Z,46.83
2022-08-26T19:26:32.130Z,46.97
2022-08-26T19:29:00.358Z,46.98
2022-08-26T19:31:28.332Z,47.16
2022-08-26T19:33:57.925Z,47.18
2022-08-26T19:36:27.427Z,47.24
2022-08-26T19:38:56.637Z,47.34
2022-08-26T19:41:37.162Z,47.34
2022-08-26T19:44:33.394Z,47.48
2022-08-26T19:47:03.431Z,47.61
2022-08-26T19:49:32.068Z,47.68
2022-08-26T19:51:59.752Z,47.76
2022-08-26T19:54:28.168Z,47.82
2022-08-26T19:56:55.841Z,47.97
2022-08-26T19:59:23.595Z,48.02
2022-08-26T20:01:55.195Z,48.07
2022-08-26T20:04:32.942Z,48.23
2022-08-26T20:07:02.276Z,48.45
2022-08-26T20:09:31.361Z,48.50
2022-08-26T20:11:59.398Z,48.53
2022-08-26T20:14:27.881Z,48.63
2022-08-26T20:16:55.709Z,48.69
2022-08-26T20:19:39.497Z,48.71
2022-08-26T20:22:08.039Z,48.99
2022-08-26T20:24:37.975Z,49.06
2022-08-26T20:27:07.931Z,49.16
2022-08-26T20:29:37.191Z,49.23
2022-08-26T20:32:07.870Z,49.31
2022-08-26T20:34:36.694Z,49.44
2022-08-26T20:37:05.360Z,49.43
2022-08-26T20:39:33.062Z,49.59
2022-08-26T20:42:00.727Z,49.66
2022-08-26T20:44:28.537Z,49.77
2022-08-26T20:46:56.608Z,49.78
2022-08-26T20:49:24.209Z,49.97
2022-08-26T20:51:52.987Z,50.15
2022-08-26T20:54:27.571Z,50.14
2022-08-26T20:56:58.018Z,50.24
2022-08-26T20:59:26.797Z,50.29
2022-08-26T21:01:54.842Z,50.52
2022-08-26T21:04:26.036Z,50.71
2022-08-26T21:06:54.638Z,50.68
2022-08-26T21:09:24.192Z,50.71
2022-08-26T21:11:52.871Z,50.82
2022-08-26T21:14:23.215Z,50.99
2022-08-26T21:16:53.623Z,51.22
2022-08-26T21:19:21.361Z,51.36
2022-08-26T21:21:50.079Z,51.42
2022-08-26T21:24:18.076Z,51.62
2022-08-26T21:26:47.135Z,51.63
2022-08-26T21:29:15.179Z,51.81
2022-08-26T21:45:52.825Z,52.49
2022-08-26T21:48:22.882Z,52.71
2022-08-26T21:50:57.380Z,52.69
2022-08-26T21:53:25.195Z,52.89
2022-08-26T21:55:52.842Z,52.96
2022-08-26T21:58:20.455Z,53.15
2022-08-26T22:00:50.659Z,53.15
2022-08-26T22:03:18.444Z,53.42
2022-08-26T22:05:51.057Z,53.55
2022-08-26T22:08:20.417Z,53.53
2022-08-26T22:10:51.953Z,53.71
2022-08-26T22:13:26.054Z,53.83
2022-08-26T22:15:54.041Z,53.89
2022-08-26T22:18:21.646Z,54.02
2022-08-26T22:20:49.313Z,54.08
2022-08-26T22:23:17.066Z,54.32
2022-08-26T22:25:45.219Z,54.22
2022-08-26T22:28:12.984Z,54.30
2022-08-26T22:30:42.834Z,54.71
2022-08-26T22:33:11.150Z,54.58
2022-08-26T22:35:50.697Z,54.66
2022-08-26T22:38:19.808Z,55.02
2022-08-26T22:40:56.357Z,55.11
2022-08-26T22:43:25.755Z,55.28
2022-08-26T22:45:55.421Z,55.36
2022-08-26T22:48:26.410Z,55.34
2022-08-26T22:50:59.684Z,55.57
2022-08-26T22:53:28.067Z,55.64
2022-08-26T22:55:55.898Z,55.62
2022-08-26T22:58:30.454Z,55.94
2022-08-26T23:00:59.450Z,56.13
2022-08-26T23:03:27.924Z,56.02
2022-08-26T23:05:55.948Z,56.14
2022-08-26T23:08:24.911Z,56.28
2022-08-26T23:10:52.676Z,56.48
2022-08-26T23:13:20.499Z,56.49
2022-08-26T23:15:48.179Z,56.82
2022-08-26T23:18:15.993Z,56.94
2022-08-26T23:20:43.701Z,56.96
2022-08-26T23:23:12.920Z,57.18
2022-08-26T23:25:41.083Z,57.23
2022-08-26T23:28:09.345Z,57.38
2022-08-26T23:30:37.161Z,57.51
2022-08-26T23:33:04.851Z,57.62
2022-08-26T23:35:32.546Z,57.88
2022-08-26T23:38:00.720Z,57.98
2022-08-26T23:40:32.356Z,57.91
2022-08-26T23:43:05.513Z,58.34
2022-08-26T23:45:34.798Z,58.45
2022-08-26T23:48:03.375Z,58.26
2022-08-26T23:50:47.629Z,58.41
2022-08-26T23:53:20.018Z,58.72
2022-08-26T23:55:49.834Z,58.96
2022-08-26T23:58:19.207Z,59.06
